Le Mars, IA

4:43 PM CDT on August 19, 2017 (GMT -0500)
Le Mars Municipal

Weather History for KLRJ - March, 2013

Change the Weather History Date:

Friday, March 1, 2013

  Actual Average Record
Temperature  
Mean Temperature 22 °F -  
Max Temperature 26 °F 43 °F 63 °F (1992)
Min Temperature 19 °F 20 °F -7 °F (1978)
Degree Days  
Heating Degree Days 42    
Moisture  
Dew Point 17 °F    
Average Humidity 76    
Maximum Humidity 86    
Minimum Humidity 64    
Precipitation  
Precipitation 0.00 in - - ()
Sea Level Pressure  
Sea Level Pressure 30.30 in    
Wind  
Wind Speed 8 mph (North)    
Max Wind Speed 13 mph    
Max Gust Speed 17 mph    
Visibility 10 miles    
Events Snow    
Averages and records for this station are not official NWS values.
T = Trace of Precipitation, MM = Missing Value Source: NWS Daily Summary

Daily Weather History Graph

Daily Weather History Graph

Search for Another Location

Airport or City:

Trip Planner

Search our weather history database for the weather conditions in past years. The results will help you decide how hot, cold, wet, or windy it might be!

Date:

Astronomy

Mar. 01, 2013 Rise Set
Actual Time 7:00 AM CST 6:14 PM CST
Civil Twilight 6:31 AM CST 6:43 PM CST
Nautical Twilight 5:59 AM CST 7:15 PM CST
Astronomical Twilight 5:26 AM CST 7:48 PM CST
Moon 10:57 PM CST (3/1) 8:40 AM CST (3/1)
Length of Visible Light 12h 11m
Length of Day
11h 14m
Waning Gibbous, 83% of the Moon is Illuminated
Mar 1
Waning Gibbous
Mar 4
Last Quarter
Mar 11
New
Mar 19
First Quarter
Mar 27
Full

Hourly Weather History & Observations

Time (CST) Temp. Windchill Dew Point Humidity Pressure Visibility Wind Dir Wind Speed Gust Speed Precip Events Conditions
12:15 AM 24.8 °F 16.9 °F 19.4 °F 80% 30.21 in 10.0 mi North 6.9 mph - N/A   Overcast
12:35 AM 24.8 °F 17.9 °F 19.4 °F 80% 30.21 in 10.0 mi North 5.8 mph - N/A Snow Light Snow
12:55 AM 24.8 °F 16.9 °F 19.4 °F 80% 30.22 in 10.0 mi NNW 6.9 mph - N/A   Overcast
1:15 AM 24.8 °F 16.9 °F 19.4 °F 80% 30.22 in 10.0 mi NNW 6.9 mph - N/A   Overcast
1:35 AM 24.8 °F 16.9 °F 19.4 °F 80% 30.22 in 10.0 mi NNW 6.9 mph - N/A   Overcast
1:55 AM 24.8 °F 16.1 °F 19.4 °F 80% 30.22 in 10.0 mi NNW 8.1 mph - N/A Snow Light Snow
2:15 AM 24.8 °F 14.6 °F 19.4 °F 80% 30.22 in 10.0 mi NW 10.4 mph - N/A   Overcast
2:35 AM 23.0 °F 13.9 °F 19.4 °F 86% 30.22 in 10.0 mi NW 8.1 mph - N/A Snow Light Snow
2:55 AM 23.0 °F 13.1 °F 19.4 °F 86% 30.22 in 10.0 mi NNW 9.2 mph - N/A Snow Light Snow
3:35 AM 23.0 °F 15.8 °F 19.4 °F 86% 30.22 in 10.0 mi NNW 5.8 mph - N/A Snow Light Snow
3:55 AM 23.0 °F 13.9 °F 19.4 °F 86% 30.22 in 10.0 mi North 8.1 mph - N/A Snow Light Snow
4:15 AM 23.0 °F 12.4 °F 19.4 °F 86% 30.22 in 10.0 mi NNW 10.4 mph - N/A   Overcast
4:35 AM 23.0 °F 13.1 °F 19.4 °F 86% 30.22 in 10.0 mi NNW 9.2 mph - N/A Snow Light Snow
4:55 AM 23.0 °F 14.7 °F 19.4 °F 86% 30.23 in 10.0 mi North 6.9 mph - N/A Snow Light Snow
5:15 AM 23.0 °F 13.1 °F 19.4 °F 86% 30.23 in 10.0 mi North 9.2 mph - N/A   Overcast
5:35 AM 23.0 °F 13.1 °F 19.4 °F 86% 30.23 in 10.0 mi North 9.2 mph - N/A Snow Light Snow
6:15 AM 23.0 °F 14.7 °F 19.4 °F 86% 30.24 in 7.0 mi North 6.9 mph - N/A Snow Light Snow
6:35 AM 21.2 °F 11.7 °F 17.6 °F 86% 30.25 in 10.0 mi North 8.1 mph - N/A   Overcast
7:15 AM 21.2 °F 10.9 °F 17.6 °F 86% 30.26 in 10.0 mi North 9.2 mph - N/A   Overcast
7:35 AM 21.2 °F 11.7 °F 17.6 °F 86% 30.26 in 10.0 mi North 8.1 mph - N/A   Overcast
8:15 AM 23.0 °F 13.9 °F 17.6 °F 80% 30.28 in 10.0 mi North 8.1 mph - N/A   Overcast
8:35 AM 23.0 °F 12.4 °F 17.6 °F 80% 30.28 in 10.0 mi North 10.4 mph - N/A   Overcast
8:55 AM 23.0 °F 13.1 °F 17.6 °F 80% 30.28 in 10.0 mi North 9.2 mph - N/A   Overcast
9:15 AM 23.0 °F 11.7 °F 15.8 °F 74% 30.29 in 10.0 mi North 11.5 mph 17.3 mph N/A   Mostly Cloudy
9:35 AM 21.2 °F 10.1 °F 15.8 °F 80% 30.30 in 10.0 mi North 10.4 mph - N/A   Mostly Cloudy
9:55 AM 23.0 °F 11.7 °F 15.8 °F 74% 30.30 in 10.0 mi North 11.5 mph - N/A   Mostly Cloudy
10:15 AM 23.0 °F 11.7 °F 15.8 °F 74% 30.30 in 10.0 mi North 11.5 mph 17.3 mph N/A   Scattered Clouds
10:35 AM 23.0 °F 11.1 °F 15.8 °F 74% 30.30 in 10.0 mi North 12.7 mph - N/A   Clear
10:55 AM 24.8 °F 14.0 °F 15.8 °F 69% 30.31 in 10.0 mi NNE 11.5 mph - N/A   Scattered Clouds
11:15 AM 24.8 °F 13.4 °F 15.8 °F 69% 30.31 in 10.0 mi NNE 12.7 mph - N/A   Mostly Cloudy
11:35 AM 24.8 °F 15.3 °F 17.6 °F 74% 30.31 in 10.0 mi NNE 9.2 mph - N/A   Overcast
12:15 PM 24.8 °F 14.6 °F 17.6 °F 74% 30.31 in 10.0 mi North 10.4 mph - N/A   Overcast
12:35 PM 24.8 °F 16.1 °F 17.6 °F 74% 30.31 in 10.0 mi North 8.1 mph - N/A   Overcast
1:15 PM 24.8 °F 14.6 °F 15.8 °F 69% 30.31 in 10.0 mi NNE 10.4 mph - N/A   Overcast
1:35 PM 24.8 °F 15.3 °F 15.8 °F 69% 30.31 in 10.0 mi North 9.2 mph - N/A   Overcast
1:55 PM 26.6 °F 16.8 °F 15.8 °F 64% 30.31 in 10.0 mi North 10.4 mph - N/A   Overcast
2:15 PM 24.8 °F 15.3 °F 15.8 °F 69% 30.31 in 10.0 mi North 9.2 mph - N/A   Overcast
2:35 PM 24.8 °F 14.6 °F 15.8 °F 69% 30.31 in 10.0 mi North 10.4 mph - N/A   Overcast
3:15 PM 24.8 °F 14.6 °F 15.8 °F 69% 30.30 in 10.0 mi NNE 10.4 mph - N/A   Overcast
3:35 PM 24.8 °F 14.6 °F 15.8 °F 69% 30.31 in 10.0 mi NNE 10.4 mph - N/A   Overcast
3:55 PM 24.8 °F 15.3 °F 15.8 °F 69% 30.31 in 10.0 mi NNE 9.2 mph - N/A   Overcast
4:15 PM 24.8 °F 14.6 °F 15.8 °F 69% 30.31 in 10.0 mi North 10.4 mph - N/A   Overcast
4:35 PM 24.8 °F 15.3 °F 15.8 °F 69% 30.32 in 10.0 mi North 9.2 mph - N/A   Overcast
4:55 PM 24.8 °F 17.9 °F 15.8 °F 69% 30.33 in 10.0 mi NNE 5.8 mph - N/A   Overcast
5:15 PM 24.8 °F 16.1 °F 15.8 °F 69% 30.33 in 10.0 mi NNE 8.1 mph - N/A   Overcast
5:35 PM 24.8 °F 15.3 °F 15.8 °F 69% 30.33 in 10.0 mi NNE 9.2 mph - N/A   Overcast
5:55 PM 24.8 °F 16.1 °F 15.8 °F 69% 30.33 in 10.0 mi NNE 8.1 mph - N/A   Overcast
6:15 PM 24.8 °F 16.1 °F 15.8 °F 69% 30.34 in 10.0 mi North 8.1 mph - N/A   Overcast
6:35 PM 24.8 °F 16.9 °F 15.8 °F 69% 30.35 in 10.0 mi North 6.9 mph - N/A   Overcast
6:55 PM 23.0 °F 14.7 °F 15.8 °F 74% 30.35 in 10.0 mi NNE 6.9 mph - N/A   Overcast
7:15 PM 23.0 °F 17.0 °F 15.8 °F 74% 30.35 in 10.0 mi NNE 4.6 mph - N/A   Overcast
7:35 PM 23.0 °F 17.0 °F 15.8 °F 74% 30.35 in 10.0 mi North 4.6 mph - N/A   Overcast
7:55 PM 23.0 °F 15.8 °F 15.8 °F 74% 30.35 in 10.0 mi NNE 5.8 mph - N/A   Overcast
8:15 PM 23.0 °F 15.8 °F 15.8 °F 74% 30.36 in 10.0 mi NNE 5.8 mph - N/A   Overcast
8:35 PM 21.2 °F 12.6 °F 15.8 °F 80% 30.35 in 10.0 mi NNE 6.9 mph - N/A   Overcast
8:55 PM 21.2 °F 11.7 °F 15.8 °F 80% 30.35 in 10.0 mi NNE 8.1 mph - N/A   Overcast
9:15 PM 21.2 °F 13.6 °F 14.0 °F 74% 30.36 in 10.0 mi North 5.8 mph - N/A   Overcast
9:35 PM 21.2 °F 13.6 °F 14.0 °F 74% 30.37 in 10.0 mi North 5.8 mph - N/A   Overcast
9:55 PM 21.2 °F 16.4 °F 14.0 °F 74% 30.37 in 10.0 mi North 3.5 mph - N/A   Overcast
10:15 PM 21.2 °F 14.9 °F 14.0 °F 74% 30.37 in 10.0 mi North 4.6 mph - N/A   Overcast
10:35 PM 21.2 °F 13.6 °F 14.0 °F 74% 30.36 in 10.0 mi North 5.8 mph - N/A   Overcast
10:55 PM 19.4 °F 10.4 °F 14.0 °F 80% 30.36 in 10.0 mi NNE 6.9 mph - N/A   Overcast
11:15 PM 19.4 °F 12.8 °F 14.0 °F 80% 30.36 in 10.0 mi North 4.6 mph - N/A   Overcast
11:35 PM 19.4 °F 11.5 °F 14.0 °F 80% 30.36 in 10.0 mi North 5.8 mph - N/A   Overcast
11:55 PM 19.4 °F 14.3 °F 12.2 °F 74% 30.34 in 10.0 mi NE 3.5 mph - N/A   Overcast